createdAt,value
2023-05-05T06:00:06.318Z,6.28
2023-05-05T06:03:13.404Z,8.70
2023-05-05T06:06:16.297Z,4.50
2023-05-05T06:09:18.976Z,8.40
2023-05-05T06:12:20.944Z,9.70
2023-05-05T06:15:22.842Z,9.00
2023-05-05T06:18:24.659Z,9.90
2023-05-05T06:21:27.774Z,9.70
2023-05-05T06:24:29.566Z,14.55
2023-05-05T06:27:31.297Z,10.50
2023-05-05T06:30:33.082Z,6.90
2023-05-05T06:33:34.536Z,3.90
2023-05-05T06:36:36.114Z,3.47
2023-05-05T06:39:37.558Z,4.63
2023-05-05T06:42:39.029Z,4.90
2023-05-05T06:45:43.967Z,3.50
2023-05-05T06:48:45.480Z,5.97
2023-05-05T06:51:46.948Z,3.17
2023-05-05T06:54:48.489Z,3.65
2023-05-05T06:57:49.965Z,4.00
2023-05-05T07:00:51.509Z,6.60
2023-05-05T07:03:53.410Z,2.83
2023-05-05T07:06:55.182Z,3.88
2023-05-05T07:09:56.710Z,5.20
2023-05-05T07:12:58.328Z,4.03
2023-05-05T07:15:59.876Z,2.63
2023-05-05T07:19:01.487Z,3.55
2023-05-05T07:22:03.012Z,3.58
2023-05-05T07:25:05.301Z,2.75
2023-05-05T07:28:06.908Z,4.35
2023-05-05T07:31:08.790Z,3.53
2023-05-05T07:34:10.317Z,2.70
2023-05-05T07:37:11.809Z,3.60
2023-05-05T07:40:13.584Z,4.50
2023-05-05T07:43:15.068Z,4.03
2023-05-05T07:46:16.640Z,2.67
2023-05-05T07:49:18.307Z,4.50
2023-05-05T07:52:25.266Z,4.63
2023-05-05T07:55:34.936Z,3.67
2023-05-05T07:58:36.420Z,4.47
2023-05-05T08:01:40.635Z,9.27
2023-05-05T08:04:43.311Z,5.05
2023-05-05T08:07:44.864Z,4.03
2023-05-05T08:10:46.575Z,5.60
2023-05-05T08:13:48.635Z,2.70
2023-05-05T08:16:50.114Z,7.15
2023-05-05T08:19:52.220Z,4.35
2023-05-05T08:22:53.754Z,3.17
2023-05-05T08:25:55.829Z,3.00
2023-05-05T08:29:00.767Z,4.35
2023-05-05T08:32:02.251Z,4.20
2023-05-05T08:35:05.441Z,5.38
2023-05-05T08:38:06.999Z,4.00
2023-05-05T08:41:11.458Z,4.15
2023-05-05T08:44:13.018Z,5.80
2023-05-05T08:47:15.437Z,2.80
2023-05-05T08:50:19.035Z,5.03
2023-05-05T08:53:51.264Z,3.55
2023-05-05T08:56:54.759Z,5.63
2023-05-05T08:59:57.997Z,7.68
2023-05-05T09:03:01.136Z,5.30
2023-05-05T09:06:03.817Z,3.58
2023-05-05T09:09:06.501Z,5.13
2023-05-05T09:12:08.023Z,3.15
2023-05-05T09:15:11.519Z,3.65
2023-05-05T09:18:13.162Z,4.65
2023-05-05T09:21:24.794Z,3.22
2023-05-05T09:24:26.646Z,3.20
2023-05-05T09:27:28.196Z,4.53
2023-05-05T09:30:29.885Z,3.00
2023-05-05T09:33:31.862Z,2.78
2023-05-05T09:36:44.750Z,3.33
2023-05-05T09:39:54.630Z,3.35
2023-05-05T09:43:02.262Z,3.20
2023-05-05T09:46:07.878Z,3.13
2023-05-05T09:49:18.038Z,4.25
2023-05-05T09:52:19.501Z,2.88
2023-05-05T09:55:21.275Z,3.83
2023-05-05T09:58:25.199Z,2.85
2023-05-05T10:01:26.828Z,3.53
2023-05-05T10:04:31.481Z,3.65
2023-05-05T10:07:33.049Z,2.92
2023-05-05T10:10:35.224Z,3.22
2023-05-05T10:13:39.894Z,4.25
2023-05-05T10:16:47.390Z,2.85
2023-05-05T10:19:52.704Z,3.80
2023-05-05T10:22:57.340Z,3.65
2023-05-05T10:26:05.509Z,16.10
2023-05-05T10:29:33.216Z,7.32
2023-05-05T10:32:59.849Z,9.60
2023-05-05T10:36:07.620Z,6.95
2023-05-05T10:39:10.822Z,8.50
2023-05-05T10:42:14.936Z,9.35
2023-05-05T10:45:16.665Z,9.48
2023-05-05T10:48:29.707Z,11.75
2023-05-05T10:51:49.373Z,12.50
2023-05-05T10:55:13.739Z,10.20
2023-05-05T10:58:55.517Z,9.02
2023-05-05T11:02:00.402Z,7.50
2023-05-05T11:05:09.514Z,9.82
2023-05-05T11:08:27.200Z,10.90
2023-05-05T11:12:04.673Z,11.48
2023-05-05T11:15:28.297Z,11.13
2023-05-05T11:18:39.139Z,9.27
2023-05-05T11:22:00.342Z,9.27
2023-05-05T11:25:40.930Z,9.60
2023-05-05T11:29:00.647Z,6.03
2023-05-05T11:32:15.955Z,9.52
2023-05-05T11:35:17.559Z,8.95
2023-05-05T11:38:23.284Z,6.90
2023-05-05T11:41:31.564Z,8.85
2023-05-05T11:44:34.185Z,7.63
2023-05-05T11:47:36.176Z,9.65
2023-05-05T11:50:37.823Z,9.60
2023-05-05T11:53:59.018Z,7.90
2023-05-05T11:57:10.422Z,8.80
2023-05-05T12:00:12.585Z,8.93
2023-05-05T12:03:14.732Z,8.90
2023-05-05T12:06:16.450Z,8.23
2023-05-05T12:09:22.152Z,9.85
2023-05-05T12:12:40.821Z,8.68
2023-05-05T12:15:42.486Z,7.78
2023-05-05T12:18:43.928Z,7.38
2023-05-05T12:21:45.642Z,7.78
2023-05-05T12:25:13.626Z,8.07
2023-05-05T12:28:15.299Z,6.88
2023-05-05T12:31:16.903Z,7.57
2023-05-05T12:34:19.001Z,5.90
2023-05-05T12:37:21.738Z,5.68
2023-05-05T12:40:49.007Z,6.63
2023-05-05T12:43:58.194Z,5.18
2023-05-05T12:46:59.702Z,5.15
2023-05-05T12:50:03.102Z,5.05
2023-05-05T12:53:04.580Z,5.13
2023-05-05T12:56:06.199Z,4.93
2023-05-05T12:59:11.823Z,6.65
2023-05-05T13:02:13.437Z,5.15
2023-05-05T13:05:15.038Z,4.47
2023-05-05T13:08:16.660Z,5.03
2023-05-05T13:11:18.470Z,5.63
2023-05-05T13:14:20.443Z,5.63
2023-05-05T13:17:22.121Z,5.47
2023-05-05T13:20:23.615Z,4.15
2023-05-05T13:23:25.876Z,4.10
2023-05-05T13:26:28.273Z,4.65
2023-05-05T13:29:31.603Z,5.00
2023-05-05T13:32:33.319Z,3.85
2023-05-05T13:35:34.832Z,5.13
2023-05-05T13:38:36.595Z,4.93
2023-05-05T13:41:38.356Z,4.78
2023-05-05T13:44:39.954Z,4.72
2023-05-05T13:47:41.895Z,4.57
2023-05-05T13:50:43.410Z,4.25
2023-05-05T13:53:45.103Z,4.13
2023-05-05T13:56:47.148Z,3.88
2023-05-05T13:59:48.590Z,4.65
2023-05-05T14:02:50.077Z,4.13
2023-05-05T14:05:51.750Z,4.60
2023-05-05T14:08:53.550Z,3.85
2023-05-05T14:11:55.034Z,3.95
2023-05-05T14:14:56.550Z,4.40
2023-05-05T14:17:59.496Z,5.72
2023-05-05T14:21:01.104Z,4.55
2023-05-05T14:24:02.609Z,4.05
2023-05-05T16:36:01.516Z,4.13
2023-05-05T16:39:03.195Z,4.82
2023-05-05T16:42:04.743Z,7.07
2023-05-05T16:45:07.268Z,11.68
2023-05-05T16:48:09.322Z,6.70
2023-05-05T16:51:11.010Z,13.77
2023-05-05T16:54:12.531Z,6.53
2023-05-05T16:57:14.040Z,4.97
2023-05-05T17:00:15.897Z,7.40
2023-05-05T17:03:21.141Z,5.85
2023-05-05T17:06:22.620Z,7.45
2023-05-05T17:09:24.969Z,7.28
2023-05-05T17:12:26.527Z,7.82
2023-05-05T17:15:27.996Z,10.18
2023-05-05T17:18:29.579Z,5.53
2023-05-05T17:21:31.109Z,5.45
2023-05-05T17:24:32.652Z,5.70
2023-05-05T17:27:34.123Z,4.00
2023-05-05T17:30:37.482Z,6.15
2023-05-05T17:33:38.954Z,8.80
2023-05-05T17:36:40.483Z,8.70
2023-05-05T17:39:42.008Z,4.43
2023-05-05T17:42:43.516Z,5.80
2023-05-05T17:45:46.600Z,5.95
2023-05-05T17:48:48.169Z,8.38
2023-05-05T17:51:49.711Z,5.38
2023-05-05T17:54:51.577Z,8.57
2023-05-05T17:57:53.161Z,17.67
2023-05-05T18:00:54.630Z,8.13
2023-05-05T18:03:56.101Z,11.88
2023-05-05T18:06:57.676Z,10.57
2023-05-05T18:09:59.183Z,9.32
2023-05-05T18:13:00.734Z,7.15
2023-05-05T18:16:02.322Z,7.88
2023-05-05T18:19:03.946Z,9.75
2023-05-05T18:22:05.581Z,5.72
2023-05-05T18:25:08.155Z,6.88
2023-05-05T21:12:49.746Z,4.28
2023-05-05T21:15:51.306Z,3.08
2023-05-05T21:18:52.756Z,3.17
2023-05-05T21:21:54.275Z,3.03
2023-05-05T21:25:17.413Z,2.90
2023-05-05T21:28:18.875Z,2.53
2023-05-05T21:31:22.207Z,3.92
2023-05-05T21:34:24.023Z,2.58
2023-05-05T21:37:25.779Z,4.20
2023-05-05T21:40:27.244Z,2.72
2023-05-05T21:43:28.801Z,2.78
2023-05-05T21:46:30.304Z,4.20
2023-05-05T21:49:31.794Z,3.78
2023-05-05T21:52:33.541Z,2.58
2023-05-05T21:55:35.021Z,3.80
2023-05-05T21:58:36.592Z,2.50
2023-05-05T22:01:38.138Z,3.20
2023-05-05T22:04:39.666Z,2.22
2023-05-05T22:07:41.187Z,2.22
2023-05-05T22:10:42.713Z,3.95
2023-05-05T22:13:44.294Z,2.58
2023-05-05T22:16:45.919Z,2.95
2023-05-05T22:19:47.433Z,3.53
2023-05-05T22:22:48.988Z,4.35
2023-05-05T22:25:50.483Z,3.40
2023-05-05T22:28:51.966Z,4.40
2023-05-05T22:31:53.511Z,3.53
2023-05-05T22:34:55.093Z,4.28
2023-05-05T22:37:56.684Z,2.38
2023-05-05T22:40:58.111Z,2.60
2023-05-05T22:43:59.674Z,3.85
2023-05-05T22:47:01.430Z,4.32
2023-05-05T22:50:02.978Z,2.25
2023-05-05T22:53:04.559Z,3.17
2023-05-05T22:56:06.316Z,8.98
2023-05-05T22:59:08.003Z,2.53
2023-05-05T23:02:10.039Z,3.75
2023-05-05T23:05:11.889Z,2.78
2023-05-05T23:08:13.504Z,2.78
2023-05-05T23:11:15.043Z,2.42
2023-05-05T23:14:19.216Z,3.70
2023-05-05T23:17:20.991Z,3.45
2023-05-05T23:20:22.556Z,4.35
2023-05-05T23:23:24.067Z,3.00
2023-05-05T23:26:26.022Z,2.30
2023-05-05T23:29:28.006Z,6.22
2023-05-05T23:32:29.452Z,3.55
2023-05-05T23:35:31.330Z,3.95
2023-05-05T23:38:32.801Z,2.95
2023-05-05T23:41:34.235Z,2.50
2023-05-05T23:44:35.848Z,2.85
2023-05-05T23:47:37.865Z,2.00
2023-05-05T23:50:39.442Z,2.47
2023-05-05T23:53:41.134Z,2.03
2023-05-05T23:56:42.638Z,1.80
2023-05-05T23:59:44.149Z,2.38
